Keego Harbor, Michigan
Current Conditions -  °F | °C
As of 7:53 AM on Thursday 30 Oct 2014 (Local Time) from KPTK Reporting Station
Few Clouds Few Clouds  
Wind Chill: 36°   Ceiling: Unl
Heat Index: 36°   Visibility: 10mi
Dew Point: 33°   Wind: 0mph
Humidity: 89%   Direction: NA
Pressure: 30.11"   Gusts: NA
Location:  42.61°N, 83.34°W
Report Text: KPTK 301153Z 00000KT 10SM FEW023 02/01 A3011 RMK AO2 SLP202 T00220006 10050 20022 50004
Loading
Personal Weather Stations






























Interactive Weather Map
Tropical Storm Tracking
New forecast layout! Learn more

10-Day Weather Forecast

Advertisements
Track Severe Weather on mobile